Time,TemperatureF,DewpointF,PressureIn,WindDirection,WindDirectionDegrees,WindSpeedMPH,WindSpeedGustMPH,Humidity,HourlyPrecipIn,Conditions,Clouds,dailyrainin,SoftwareType,DateUTC
2013-01-15 00:13:00,26.6,-9.0,30.49,NNW,329,6.0,-999.0,21,-99.99,,,0.00,weatherlink.com 1.10,2013-01-15 08:13:00,
2013-01-15 00:28:00,26.1,-9.0,30.49,NNW,327,4.0,-999.0,21,-99.99,,,0.00,weatherlink.com 1.10,2013-01-15 08:28:00,
2013-01-15 00:43:00,25.3,-9.0,30.49,NW,324,5.0,-999.0,22,-99.99,,,0.00,weatherlink.com 1.10,2013-01-15 08:43:00,
2013-01-15 00:58:00,24.1,-9.0,30.50,NW,323,7.0,-999.0,23,-99.99,,,0.00,weatherlink.com 1.10,2013-01-15 08:58:00,
2013-01-15 01:13:00,23.3,-9.0,30.50,NW,324,5.0,-999.0,24,-99.99,,,0.00,weatherlink.com 1.10,2013-01-15 09:13:00,
2013-01-15 01:28:00,23.3,-9.0,30.50,NW,325,7.0,-999.0,24,-99.99,,,0.00,weatherlink.com 1.10,2013-01-15 09:28:00,
2013-01-15 01:44:00,23.3,-9.0,30.52,NW,326,4.0,-999.0,24,-99.99,,,0.00,weatherlink.com 1.10,2013-01-15 09:44:00,
2013-01-15 01:59:00,23.0,-9.0,30.52,NNW,331,7.0,-999.0,24,-99.99,,,0.00,weatherlink.com 1.10,2013-01-15 09:59:00,
2013-01-15 02:14:00,23.9,-8.0,30.52,NNW,332,6.0,-999.0,24,-99.99,,,0.00,weatherlink.com 1.10,2013-01-15 10:14:00,
2013-01-15 02:29:00,25.0,-7.0,30.51,NNW,335,5.0,-999.0,24,-99.99,,,0.00,weatherlink.com 1.10,2013-01-15 10:29:00,
2013-01-15 02:44:00,25.0,-7.0,30.51,NNW,335,4.0,-999.0,24,-99.99,,,0.00,weatherlink.com 1.10,2013-01-15 10:44:00,
2013-01-15 02:59:00,24.8,-7.0,30.52,NNW,335,4.0,-999.0,24,-99.99,,,0.00,weatherlink.com 1.10,2013-01-15 10:59:00,
2013-01-15 03:14:00,25.0,-7.0,30.51,NNW,336,6.0,-999.0,24,-99.99,,,0.00,weatherlink.com 1.10,2013-01-15 11:14:00,
2013-01-15 03:29:00,24.7,-7.0,30.52,NNW,337,5.0,-999.0,24,-99.99,,,0.00,weatherlink.com 1.10,2013-01-15 11:29:00,
2013-01-15 03:44:00,24.7,-7.0,30.52,NNW,343,5.0,-999.0,25,-99.99,,,0.00,weatherlink.com 1.10,2013-01-15 11:44:00,
2013-01-15 03:59:00,24.7,-7.0,30.52,NNW,345,4.0,-999.0,25,-99.99,,,0.00,weatherlink.com 1.10,2013-01-15 11:59:00,
2013-01-15 04:14:00,24.8,-7.0,30.51,NNW,345,4.0,-999.0,25,-99.99,,,0.00,weatherlink.com 1.10,2013-01-15 12:14:00,
2013-01-15 04:29:00,23.9,-7.0,30.51,NNW,345,0.0,-999.0,26,-99.99,,,0.00,weatherlink.com 1.10,2013-01-15 12:29:00,
2013-01-15 04:45:00,21.3,-7.0,30.54,NNW,345,0.0,-999.0,28,-99.99,,,0.00,weatherlink.com 1.10,2013-01-15 12:45:00,
2013-01-15 05:00:00,19.7,-7.0,30.55,NNW,345,0.0,-999.0,30,-99.99,,,0.00,weatherlink.com 1.10,2013-01-15 13:00:00,
2013-01-15 05:15:00,19.2,-8.0,30.56,NNW,345,0.0,-999.0,30,-99.99,,,0.00,weatherlink.com 1.10,2013-01-15 13:15:00,
2013-01-15 05:30:00,19.1,-6.0,30.57,NNW,345,0.0,-999.0,33,-99.99,,,0.00,weatherlink.com 1.10,2013-01-15 13:30:00,
2013-01-15 05:45:00,18.9,-5.0,30.58,NNW,345,0.0,-999.0,35,-99.99,,,0.00,weatherlink.com 1.10,2013-01-15 13:45:00,
2013-01-15 06:00:00,18.6,-5.0,30.58,NNW,345,0.0,-999.0,35,-99.99,,,0.00,weatherlink.com 1.10,2013-01-15 14:00:00,
2013-01-15 06:15:00,18.6,-5.0,30.59,NNW,345,0.0,-999.0,35,-99.99,,,0.00,weatherlink.com 1.10,2013-01-15 14:15:00,
2013-01-15 06:30:00,18.4,-4.0,30.60,NNW,345,0.0,-999.0,37,-99.99,,,0.00,weatherlink.com 1.10,2013-01-15 14:30:00,
2013-01-15 06:45:00,18.6,-4.0,30.60,NNW,345,0.0,-999.0,36,-99.99,,,0.00,weatherlink.com 1.10,2013-01-15 14:45:00,
2013-01-15 07:01:00,18.6,-5.0,30.61,NNW,345,0.0,-999.0,35,-99.99,,,0.00,weatherlink.com 1.10,2013-01-15 15:01:00,
2013-01-15 07:15:00,18.4,-5.0,30.63,NNW,345,0.0,-999.0,36,-99.99,,,0.00,weatherlink.com 1.10,2013-01-15 15:15:00,
2013-01-15 07:31:00,18.9,-4.0,30.63,NNW,345,0.0,-999.0,36,-99.99,,,0.00,weatherlink.com 1.10,2013-01-15 15:31:00,
2013-01-15 07:46:00,20.3,-3.0,30.64,NNW,345,0.0,-999.0,35,-99.99,,,0.00,weatherlink.com 1.10,2013-01-15 15:46:00,
2013-01-15 08:01:00,21.6,-4.0,30.64,NNW,345,0.0,-999.0,33,-99.99,,,0.00,weatherlink.com 1.10,2013-01-15 16:01:00,
2013-01-15 08:16:00,23.8,-4.0,30.65,NNW,345,0.0,-999.0,30,-99.99,,,0.00,weatherlink.com 1.10,2013-01-15 16:16:00,
2013-01-15 08:31:00,26.4,-4.0,30.65,NNW,328,2.0,-999.0,26,-99.99,,,0.00,weatherlink.com 1.10,2013-01-15 16:31:00,
2013-01-15 08:46:00,29.3,-4.0,30.64,North,355,10.0,-999.0,23,-99.99,,,0.00,weatherlink.com 1.10,2013-01-15 16:46:00,
2013-01-15 09:01:00,31.5,-4.0,30.64,North,11,1.0,-999.0,21,-99.99,,,0.00,weatherlink.com 1.10,2013-01-15 17:01:00,
2013-01-15 09:16:00,33.1,-5.0,30.64,NNE,13,5.0,-999.0,19,-99.99,,,0.00,weatherlink.com 1.10,2013-01-15 17:16:00,
2013-01-15 09:31:00,34.1,-4.0,30.64,NNE,17,0.0,-999.0,19,-99.99,,,0.00,weatherlink.com 1.10,2013-01-15 17:31:00,
2013-01-15 09:46:00,35.9,-4.0,30.64,NNE,12,0.0,-999.0,18,-99.99,,,0.00,weatherlink.com 1.10,2013-01-15 17:46:00,
2013-01-15 10:02:00,37.8,-4.0,30.62,NNE,12,1.0,-999.0,17,-99.99,,,0.00,weatherlink.com 1.10,2013-01-15 18:02:00,
2013-01-15 10:17:00,39.2,-4.0,30.61,NNE,13,0.0,-999.0,16,-99.99,,,0.00,weatherlink.com 1.10,2013-01-15 18:17:00,
2013-01-15 10:32:00,39.6,-3.0,30.60,NNE,13,0.0,-999.0,16,-99.99,,,0.00,weatherlink.com 1.10,2013-01-15 18:32:00,
2013-01-15 10:47:00,40.8,-2.0,30.58,North,355,7.0,-999.0,16,-99.99,,,0.00,weatherlink.com 1.10,2013-01-15 18:47:00,
2013-01-15 11:02:00,41.9,-2.0,30.57,NNE,27,3.0,-999.0,16,-99.99,,,0.00,weatherlink.com 1.10,2013-01-15 19:02:00,
2013-01-15 11:17:00,42.9,-1.0,30.56,NE,45,2.0,-999.0,16,-99.99,,,0.00,weatherlink.com 1.10,2013-01-15 19:17:00,
2013-01-15 11:32:00,44.1,2.0,30.54,NNE,22,0.0,-999.0,17,-99.99,,,0.00,weatherlink.com 1.10,2013-01-15 19:32:00,
2013-01-15 11:47:00,44.1,5.0,30.54,ENE,69,1.0,-999.0,20,-99.99,,,0.00,weatherlink.com 1.10,2013-01-15 19:47:00,
2013-01-15 12:02:00,43.8,4.0,30.52,ENE,71,0.0,-999.0,19,-99.99,,,0.00,weatherlink.com 1.10,2013-01-15 20:02:00,
2013-01-15 12:17:00,44.8,3.0,30.53,NE,39,4.0,-999.0,18,-99.99,,,0.00,weatherlink.com 1.10,2013-01-15 20:17:00,
2013-01-15 12:33:00,45.7,3.0,30.52,NNE,17,5.0,-999.0,17,-99.99,,,0.00,weatherlink.com 1.10,2013-01-15 20:33:00,
2013-01-15 12:48:00,45.2,4.0,30.51,NNE,15,7.0,-999.0,18,-99.99,,,0.00,weatherlink.com 1.10,2013-01-15 20:48:00,
2013-01-15 13:03:00,45.5,3.0,30.51,NE,36,4.0,-999.0,17,-99.99,,,0.00,weatherlink.com 1.10,2013-01-15 21:03:00,
2013-01-15 13:18:00,45.8,4.0,30.51,NE,50,15.0,-999.0,18,-99.99,,,0.00,weatherlink.com 1.10,2013-01-15 21:18:00,
2013-01-15 13:33:00,46.0,4.0,30.51,NE,42,4.0,-999.0,18,-99.99,,,0.00,weatherlink.com 1.10,2013-01-15 21:33:00,
2013-01-15 13:48:00,45.8,4.0,30.51,North,355,5.0,-999.0,18,-99.99,,,0.00,weatherlink.com 1.10,2013-01-15 21:48:00,
2013-01-15 14:03:00,46.1,5.0,30.51,NE,42,4.0,-999.0,18,-99.99,,,0.00,weatherlink.com 1.10,2013-01-15 22:03:00,
2013-01-15 14:18:00,47.0,5.0,30.49,NNE,22,8.0,-999.0,18,-99.99,,,0.00,weatherlink.com 1.10,2013-01-15 22:18:00,
2013-01-15 14:33:00,47.4,6.0,30.50,NNE,27,9.0,-999.0,18,-99.99,,,0.00,weatherlink.com 1.10,2013-01-15 22:33:00,
2013-01-15 14:48:00,47.6,6.0,30.49,ENE,59,8.0,-999.0,18,-99.99,,,0.00,weatherlink.com 1.10,2013-01-15 22:48:00,
2013-01-15 15:03:00,47.4,6.0,30.50,NE,54,9.0,-999.0,18,-99.99,,,0.00,weatherlink.com 1.10,2013-01-15 23:03:00,
2013-01-15 15:18:00,47.6,6.0,30.50,ENE,60,7.0,-999.0,18,-99.99,,,0.00,weatherlink.com 1.10,2013-01-15 23:18:00,
2013-01-15 15:34:00,47.6,7.0,30.50,East,83,5.0,-999.0,19,-99.99,,,0.00,weatherlink.com 1.10,2013-01-15 23:34:00,
2013-01-15 15:49:00,47.9,7.0,30.50,NE,48,3.0,-999.0,19,-99.99,,,0.00,weatherlink.com 1.10,2013-01-15 23:49:00,
2013-01-15 16:04:00,48.3,6.0,30.49,NE,56,6.0,-999.0,18,-99.99,,,0.00,weatherlink.com 1.10,2013-01-16 00:04:00,
2013-01-15 16:19:00,47.4,6.0,30.50,NE,34,5.0,-999.0,18,-99.99,,,0.00,weatherlink.com 1.10,2013-01-16 00:19:00,
2013-01-15 16:34:00,47.0,5.0,30.51,NNE,21,4.0,-999.0,18,-99.99,,,0.00,weatherlink.com 1.10,2013-01-16 00:34:00,
2013-01-15 16:49:00,46.4,6.0,30.51,NNE,21,4.0,-999.0,19,-99.99,,,0.00,weatherlink.com 1.10,2013-01-16 00:49:00,
2013-01-15 17:04:00,45.8,4.0,30.52,NNE,21,0.0,-999.0,18,-99.99,,,0.00,weatherlink.com 1.10,2013-01-16 01:04:00,
2013-01-15 17:19:00,44.9,4.0,30.52,NNE,21,2.0,-999.0,18,-99.99,,,0.00,weatherlink.com 1.10,2013-01-16 01:19:00,
2013-01-15 17:34:00,43.9,4.0,30.53,NNE,21,0.0,-999.0,19,-99.99,,,0.00,weatherlink.com 1.10,2013-01-16 01:34:00,
2013-01-15 17:49:00,42.6,3.0,30.53,North,349,2.0,-999.0,19,-99.99,,,0.00,weatherlink.com 1.10,2013-01-16 01:49:00,
2013-01-15 18:04:00,40.6,3.0,30.55,NW,323,5.0,-999.0,21,-99.99,,,0.00,weatherlink.com 1.10,2013-01-16 02:04:00,
2013-01-15 18:19:00,39.3,2.0,30.56,NW,323,4.0,-999.0,21,-99.99,,,0.00,weatherlink.com 1.10,2013-01-16 02:19:00,
2013-01-15 18:34:00,37.8,2.0,30.56,NW,323,4.0,-999.0,22,-99.99,,,0.00,weatherlink.com 1.10,2013-01-16 02:34:00,
2013-01-15 18:50:00,37.0,2.0,30.56,NW,321,6.0,-999.0,23,-99.99,,,0.00,weatherlink.com 1.10,2013-01-16 02:50:00,
2013-01-15 19:05:00,36.6,2.0,30.56,NW,322,6.0,-999.0,23,-99.99,,,0.00,weatherlink.com 1.10,2013-01-16 03:05:00,
2013-01-15 19:20:00,36.6,3.0,30.56,NW,324,7.0,-999.0,24,-99.99,,,0.00,weatherlink.com 1.10,2013-01-16 03:20:00,
2013-01-15 19:35:00,36.6,3.0,30.56,NNW,327,8.0,-999.0,24,-99.99,,,0.00,weatherlink.com 1.10,2013-01-16 03:35:00,
2013-01-15 19:50:00,36.3,3.0,30.57,NNW,331,5.0,-999.0,24,-99.99,,,0.00,weatherlink.com 1.10,2013-01-16 03:50:00,
2013-01-15 20:05:00,35.9,2.0,30.57,NNW,332,5.0,-999.0,24,-99.99,,,0.00,weatherlink.com 1.10,2013-01-16 04:05:00,
2013-01-15 20:20:00,35.9,3.0,30.54,NNW,336,7.0,-999.0,25,-99.99,,,0.00,weatherlink.com 1.10,2013-01-16 04:20:00,
2013-01-15 20:35:00,36.3,3.0,30.55,NNW,333,6.0,-999.0,24,-99.99,,,0.00,weatherlink.com 1.10,2013-01-16 04:35:00,
2013-01-15 20:50:00,36.2,3.0,30.55,NNW,334,4.0,-999.0,25,-99.99,,,0.00,weatherlink.com 1.10,2013-01-16 04:50:00,
2013-01-15 21:05:00,35.6,5.0,30.55,NNW,337,6.0,-999.0,27,-99.99,,,0.00,weatherlink.com 1.10,2013-01-16 05:05:00,
2013-01-15 21:20:00,36.0,5.0,30.53,NNW,337,2.0,-999.0,27,-99.99,,,0.00,weatherlink.com 1.10,2013-01-16 05:20:00,
2013-01-15 21:35:00,36.9,6.0,30.53,NNW,338,4.0,-999.0,27,-99.99,,,0.00,weatherlink.com 1.10,2013-01-16 05:35:00,
2013-01-15 21:50:00,37.8,6.0,30.52,NNW,342,6.0,-999.0,27,-99.99,,,0.00,weatherlink.com 1.10,2013-01-16 05:50:00,
2013-01-15 22:05:00,38.0,7.0,30.52,NNW,346,5.0,-999.0,27,-99.99,,,0.00,weatherlink.com 1.10,2013-01-16 06:05:00,
2013-01-15 22:21:00,37.8,7.0,30.51,North,350,7.0,-999.0,28,-99.99,,,0.00,weatherlink.com 1.10,2013-01-16 06:21:00,
2013-01-15 22:36:00,37.5,6.0,30.51,NNW,345,6.0,-999.0,27,-99.99,,,0.00,weatherlink.com 1.10,2013-01-16 06:36:00,
2013-01-15 22:51:00,37.3,7.0,30.52,NNW,346,6.0,-999.0,28,-99.99,,,0.00,weatherlink.com 1.10,2013-01-16 06:51:00,
2013-01-15 23:06:00,37.2,8.0,30.52,NNW,348,10.0,-999.0,30,-99.99,,,0.00,weatherlink.com 1.10,2013-01-16 07:06:00,
2013-01-15 23:21:00,38.0,8.0,30.51,NNW,346,6.0,-999.0,29,-99.99,,,0.00,weatherlink.com 1.10,2013-01-16 07:21:00,
2013-01-15 23:36:00,37.8,8.0,30.51,NNW,348,0.0,-999.0,29,-99.99,,,0.00,weatherlink.com 1.10,2013-01-16 07:36:00,
2013-01-15 23:51:00,36.9,7.0,30.51,NNW,348,0.0,-999.0,29,-99.99,,,0.00,weatherlink.com 1.10,2013-01-16 07:51:00,